Time;durP1;ratioP1;P1;durP2;ratioP2;P2;SDS_P1;SDS_P2;PMS_P1;PMS_P2;Temp;Humidity;BMP_temperature;BMP_pressure;BME280_temperature;BME280_humidity;BME280_pressure;Samples;Min_cycle;Max_cycle;Signal;HPM_P1;HPM_P2
2023/11/27 00:00:40;;;;;;;2.47;0.90;;;;;;;2.44;100.00;101265.97;2097614;28;20181;-63
2023/11/27 00:01:42;;;;;;;1.50;1.10;;;;;;;2.50;100.00;101275.44;2090025;28;20647;-63
2023/11/27 00:02:42;;;;;;;1.73;0.90;;;;;;;2.45;100.00;101279.28;2097104;28;20833;-64
2023/11/27 00:03:43;;;;;;;0.90;0.77;;;;;;;2.42;100.00;101288.19;2098089;28;20191;-63
2023/11/27 00:04:43;;;;;;;2.20;1.20;;;;;;;2.52;100.00;101284.09;2097045;28;20176;-63
2023/11/27 00:05:44;;;;;;;1.20;0.90;;;;;;;2.51;100.00;101272.34;2094758;28;20211;-63
2023/11/27 00:06:44;;;;;;;1.60;0.93;;;;;;;2.53;100.00;101286.50;2089849;28;20234;-63
2023/11/27 00:07:45;;;;;;;1.40;1.10;;;;;;;2.23;100.00;101228.06;2089657;28;20198;-63
2023/11/27 00:08:48;;;;;;;1.73;1.00;;;;;;;2.61;100.00;101285.44;2097956;28;20632;-63
2023/11/27 00:09:49;;;;;;;2.33;1.13;;;;;;;2.62;100.00;101295.25;2097876;28;20216;-63
2023/11/27 00:10:49;;;;;;;2.20;1.00;;;;;;;2.13;100.00;101219.66;2094508;28;20199;-63
2023/11/27 00:11:50;;;;;;;1.23;0.97;;;;;;;2.57;100.00;101290.06;2091412;28;20605;-63
2023/11/27 00:12:51;;;;;;;1.67;1.10;;;;;;;2.60;100.00;101294.03;2097719;28;20179;-63
2023/11/27 00:13:51;;;;;;;2.60;1.30;;;;;;;2.55;100.00;101299.78;2098046;28;20203;-63
2023/11/27 00:14:52;;;;;;;1.33;0.90;;;;;;;2.52;100.00;101300.53;2090406;28;20277;-63
2023/11/27 00:15:52;;;;;;;2.30;1.20;;;;;;;2.51;100.00;101301.69;2089897;28;20675;-63
2023/11/27 00:16:53;;;;;;;2.50;1.20;;;;;;;2.49;100.00;101310.25;2094700;28;20199;-63
2023/11/27 00:17:53;;;;;;;1.00;0.70;;;;;;;2.49;100.00;101317.66;2097302;28;20287;-63
2023/11/27 00:18:54;;;;;;;1.93;1.33;;;;;;;2.28;100.00;101282.47;2095542;28;20644;-63
2023/11/27 00:19:54;;;;;;;1.70;1.03;;;;;;;2.48;100.00;101325.09;2093777;28;20183;-63
2023/11/27 00:20:55;;;;;;;3.80;0.87;;;;;;;2.35;100.00;101320.91;2089405;28;20257;-63
2023/11/27 00:21:55;;;;;;;1.43;1.00;;;;;;;2.37;100.00;101318.59;2097845;28;20633;-63
2023/11/27 00:22:56;;;;;;;1.57;1.10;;;;;;;2.33;100.00;101316.94;2091093;28;20215;-63
2023/11/27 00:23:56;;;;;;;1.50;1.00;;;;;;;2.36;100.00;101322.47;2089449;28;20350;-63
2023/11/27 00:24:57;;;;;;;2.07;1.03;;;;;;;2.40;100.00;101328.81;2093880;28;20184;-63
2023/11/27 00:25:57;;;;;;;1.90;1.20;;;;;;;2.40;100.00;101334.28;2095043;28;20623;-63
2023/11/27 00:26:58;;;;;;;1.50;0.97;;;;;;;2.29;100.00;101310.59;2089294;28;20681;-63
2023/11/27 00:27:58;;;;;;;1.80;1.03;;;;;;;2.43;100.00;101325.38;2088357;28;20210;-63
2023/11/27 00:28:59;;;;;;;1.70;1.13;;;;;;;1.33;100.00;101170.38;2089828;28;20187;-63
2023/11/27 00:29:59;;;;;;;2.53;1.10;;;;;;;2.36;100.00;101329.91;2089535;28;20189;-63
2023/11/27 00:31:00;;;;;;;1.00;0.83;;;;;;;2.31;100.00;101332.94;2089253;28;20199;-63
2023/11/27 00:32:00;;;;;;;1.53;0.87;;;;;;;2.32;100.00;101334.50;2089540;28;20613;-63
2023/11/27 00:33:01;;;;;;;1.67;1.00;;;;;;;2.23;100.00;101331.19;2089638;28;20190;-63
2023/11/27 00:34:01;;;;;;;1.70;1.17;;;;;;;2.30;100.00;101336.78;2089502;28;20183;-63
2023/11/27 00:35:02;;;;;;;1.23;0.90;;;;;;;2.10;100.00;101327.03;2089543;28;20174;-63
2023/11/27 00:36:04;;;;;;;1.10;0.80;;;;;;;1.11;100.00;101160.13;2089696;28;20185;-63
2023/11/27 00:37:05;;;;;;;1.77;1.05;;;;;;;2.30;100.00;101339.53;2089523;28;20179;-63
2023/11/27 00:38:05;;;;;;;1.70;0.90;;;;;;;2.32;100.00;101346.22;2089123;28;20199;-63
2023/11/27 00:39:08;;;;;;;2.50;1.20;;;;;;;2.37;100.00;101347.91;2089150;28;20191;-63
2023/11/27 00:40:10;;;;;;;1.10;1.00;;;;;;;2.08;100.00;101293.75;2094191;28;20336;-63
2023/11/27 00:41:14;;;;;;;1.70;1.02;;;;;;;2.23;100.00;101340.19;2097140;28;20186;-63
2023/11/27 00:42:14;;;;;;;1.90;1.20;;;;;;;2.47;100.00;101356.31;2093304;28;20179;-63
2023/11/27 00:43:15;;;;;;;1.63;0.70;;;;;;;2.47;100.00;101341.84;2088602;28;20188;-63
2023/11/27 00:44:16;;;;;;;1.20;0.90;;;;;;;2.54;100.00;101359.19;2096275;28;20172;-64
2023/11/27 00:45:16;;;;;;;1.53;0.80;;;;;;;2.49;100.00;101358.69;2089015;28;20261;-63
2023/11/27 00:46:19;;;;;;;2.23;1.33;;;;;;;2.48;100.00;101357.91;2096657;28;20182;-63
2023/11/27 00:47:19;;;;;;;1.10;1.00;;;;;;;2.51;100.00;101364.59;2091718;28;20649;-64
2023/11/27 00:48:20;;;;;;;1.57;0.90;;;;;;;2.49;100.00;101348.53;2093555;28;20579;-64
2023/11/27 00:49:20;;;;;;;0.97;0.77;;;;;;;2.52;100.00;101353.28;2094322;28;20537;-63
2023/11/27 00:50:21;;;;;;;1.67;1.03;;;;;;;2.59;100.00;101350.69;2091590;28;20584;-64
2023/11/27 00:51:22;;;;;;;2.70;1.03;;;;;;;2.64;100.00;101360.56;2097121;28;20183;-63
2023/11/27 00:52:23;;;;;;;3.08;0.95;;;;;;;2.67;100.00;101355.16;2097796;28;20317;-64
2023/11/27 00:53:23;;;;;;;1.33;0.83;;;;;;;2.47;100.00;101325.44;2089363;28;20191;-64
2023/11/27 00:54:24;;;;;;;0.83;0.70;;;;;;;2.56;100.00;101326.00;2089489;28;20739;-63
2023/11/27 00:55:24;;;;;;;2.43;0.80;;;;;;;2.71;100.00;101355.22;2095159;28;20187;-63
2023/11/27 00:56:25;;;;;;;1.33;0.93;;;;;;;2.72;100.00;101363.06;2097415;28;20194;-63
2023/11/27 00:57:25;;;;;;;1.13;0.80;;;;;;;2.75;100.00;101361.56;2094145;28;20211;-64
2023/11/27 00:58:26;;;;;;;1.00;0.70;;;;;;;2.59;100.00;101341.69;2090852;28;20176;-63
2023/11/27 00:59:26;;;;;;;1.03;0.80;;;;;;;2.66;100.00;101366.44;2096920;28;20229;-63
2023/11/27 01:00:27;;;;;;;1.73;1.07;;;;;;;2.56;100.00;101353.38;2089448;28;20183;-63
2023/11/27 01:01:27;;;;;;;3.17;1.00;;;;;;;2.31;100.00;101317.28;2088841;28;20673;-63
2023/11/27 01:02:28;;;;;;;1.43;1.13;;;;;;;2.52;100.00;101364.22;2095350;28;20209;-63
2023/11/27 01:03:28;;;;;;;1.33;0.90;;;;;;;2.54;100.00;101366.59;2096864;28;20190;-64
2023/11/27 01:04:29;;;;;;;2.03;1.00;;;;;;;2.16;100.00;101307.22;2095160;28;20202;-63
2023/11/27 01:05:29;;;;;;;1.60;1.00;;;;;;;2.53;100.00;101368.56;2095197;28;20190;-63
2023/11/27 01:06:30;;;;;;;3.00;0.80;;;;;;;1.60;100.00;101225.97;2090223;28;20186;-63
2023/11/27 01:07:30;;;;;;;2.03;1.10;;;;;;;2.54;100.00;101377.53;2097376;28;20175;-63
2023/11/27 01:08:31;;;;;;;1.53;0.93;;;;;;;2.50;100.00;101373.94;2097443;28;20699;-63
2023/11/27 01:09:38;;;;;;;1.37;0.90;;;;;;;2.52;100.00;101377.91;2090015;28;20184;-63
2023/11/27 01:10:39;;;;;;;0.70;0.70;;;;;;;2.43;100.00;101366.41;2087687;28;20597;-63
2023/11/27 01:11:40;;;;;;;1.00;0.80;;;;;;;2.46;100.00;101373.09;2099868;28;20189;-62
2023/11/27 01:12:43;;;;;;;1.43;1.07;;;;;;;2.36;100.00;101362.72;2097840;28;20250;-64
2023/11/27 01:13:44;;;;;;;1.70;0.80;;;;;;;2.45;100.00;101380.50;2089219;28;20187;-63
2023/11/27 01:14:44;;;;;;;1.60;1.00;;;;;;;2.49;100.00;101389.59;2091226;28;20176;-63
2023/11/27 01:15:45;;;;;;;2.30;1.03;;;;;;;2.50;100.00;101376.69;2096843;28;20175;-63
2023/11/27 01:16:45;;;;;;;2.07;1.13;;;;;;;2.54;100.00;101381.09;2089401;28;20196;-64
2023/11/27 01:17:46;;;;;;;1.70;1.13;;;;;;;2.53;100.00;101371.31;2088619;28;20484;-63
2023/11/27 01:18:47;;;;;;;2.53;1.20;;;;;;;2.53;100.00;101384.19;2095403;28;20209;-63
2023/11/27 01:19:47;;;;;;;1.67;1.20;;;;;;;2.42;100.00;101366.75;2097313;28;20564;-64
2023/11/27 01:20:48;;;;;;;2.00;1.30;;;;;;;2.37;100.00;101356.09;2097041;28;20600;-63
2023/11/27 01:21:48;;;;;;;2.93;1.10;;;;;;;1.37;100.00;101201.28;2094678;28;20172;-63
2023/11/27 01:22:49;;;;;;;2.20;0.90;;;;;;;2.47;100.00;101385.63;2089939;28;20168;-63
2023/11/27 01:23:49;;;;;;;1.23;0.97;;;;;;;2.43;100.00;101385.56;2097475;28;20185;-63
2023/11/27 01:24:51;;;;;;;1.00;0.80;;;;;;;2.35;100.00;101383.81;2097361;28;20262;-63
2023/11/27 01:25:51;;;;;;;1.17;0.82;;;;;;;2.38;100.00;101383.09;2090383;28;20195;-63
2023/11/27 01:26:52;;;;;;;1.73;1.10;;;;;;;2.30;100.00;101378.63;2089033;28;20268;-63
2023/11/27 01:27:52;;;;;;;1.50;1.00;;;;;;;2.15;100.00;101346.66;2088604;28;20196;-63
2023/11/27 01:28:53;;;;;;;2.33;0.90;;;;;;;2.44;100.00;101380.84;2088929;28;20268;-63
2023/11/27 01:29:53;;;;;;;2.17;1.10;;;;;;;2.40;100.00;101389.00;2091079;28;20187;-63
2023/11/27 01:30:54;;;;;;;1.27;0.87;;;;;;;2.39;100.00;101383.88;2096116;28;20743;-64
2023/11/27 01:31:54;;;;;;;3.37;1.07;;;;;;;2.38;100.00;101390.50;2089321;28;20183;-63
2023/11/27 01:32:55;;;;;;;1.53;1.10;;;;;;;2.37;100.00;101392.44;2097029;28;20214;-64
2023/11/27 01:33:55;;;;;;;1.30;0.90;;;;;;;2.39;100.00;101387.41;2090747;28;20203;-63
2023/11/27 01:34:56;;;;;;;1.07;0.80;;;;;;;1.58;100.00;101264.56;2089203;28;20446;-63
2023/11/27 01:35:56;;;;;;;1.80;1.10;;;;;;;2.40;100.00;101391.72;2092947;28;20229;-63
2023/11/27 01:36:57;;;;;;;1.37;1.00;;;;;;;2.32;100.00;101389.97;2094702;28;20176;-63
2023/11/27 01:37:58;;;;;;;1.97;1.10;;;;;;;2.19;100.00;101366.66;2088457;28;20187;-64
2023/11/27 01:38:58;;;;;;;2.07;1.10;;;;;;;2.24;100.00;101369.13;2088583;28;20186;-63
2023/11/27 01:39:59;;;;;;;1.80;1.10;;;;;;;2.36;100.00;101392.81;2089098;28;20190;-63
2023/11/27 01:40:59;;;;;;;1.67;1.00;;;;;;;2.00;100.00;101338.50;2095806;28;20320;-63
2023/11/27 01:42:00;;;;;;;1.90;1.07;;;;;;;2.35;100.00;101396.69;2097312;28;20207;-63
2023/11/27 01:43:00;;;;;;;2.10;1.30;;;;;;;2.37;100.00;101397.91;2092818;28;20345;-64
2023/11/27 01:44:01;;;;;;;2.20;1.23;;;;;;;2.38;100.00;101395.97;2092308;28;20567;-64
2023/11/27 01:45:02;;;;;;;1.93;1.20;;;;;;;2.40;100.00;101399.94;2095171;28;20199;-63
2023/11/27 01:46:26;;;;;;;2.03;1.17;;;;;;;2.38;100.00;101394.03;2089930;28;20693;-64
2023/11/27 01:47:27;;;;;;;3.08;1.40;;;;;;;2.41;100.00;101396.03;2094222;28;20192;-63
2023/11/27 01:48:28;;;;;;;1.87;0.97;;;;;;;2.42;100.00;101397.63;2090143;28;20241;-63
2023/11/27 01:49:29;;;;;;;1.25;0.88;;;;;;;2.41;100.00;101392.53;2096963;28;20224;-64
2023/11/27 01:50:32;;;;;;;3.55;1.13;;;;;;;1.70;100.00;101296.44;2089080;28;20266;-64
2023/11/27 01:51:33;;;;;;;1.17;0.90;;;;;;;1.45;100.00;101251.41;2096642;28;20195;-63
2023/11/27 01:52:35;;;;;;;1.93;1.00;;;;;;;2.43;100.00;101403.91;2090751;28;20193;-63
2023/11/27 01:53:36;;;;;;;3.78;1.08;;;;;;;2.43;100.00;101403.91;2093637;28;20707;-64
2023/11/27 01:54:38;;;;;;;1.73;0.87;;;;;;;2.40;100.00;101410.88;2092712;28;20579;-63
2023/11/27 01:55:38;;;;;;;2.33;1.10;;;;;;;2.36;100.00;101409.22;2089093;28;20274;-63
2023/11/27 01:56:43;;;;;;;1.27;0.77;;;;;;;2.41;100.00;101408.94;2090860;28;20189;-64
2023/11/27 01:57:44;;;;;;;3.22;1.00;;;;;;;2.45;100.00;101399.66;2096594;28;20240;-63
2023/11/27 01:58:46;;;;;;;1.40;1.10;;;;;;;2.47;100.00;101399.31;2097324;28;20701;-63
2023/11/27 01:59:47;;;;;;;0.82;0.77;;;;;;;2.37;100.00;101386.19;2088996;28;20212;-64
2023/11/27 02:00:48;;;;;;;0.98;0.77;;;;;;;2.44;100.00;101398.06;2088470;28;20212;-64
2023/11/27 02:01:49;;;;;;;1.57;1.00;;;;;;;2.16;100.00;101355.66;2088920;28;20191;-64
2023/11/27 02:02:50;;;;;;;1.10;0.83;;;;;;;2.04;100.00;101333.88;2093033;28;20314;-64
2023/11/27 02:03:50;;;;;;;2.00;0.90;;;;;;;2.46;100.00;101398.50;2092917;28;20199;-63
2023/11/27 02:04:51;;;;;;;3.23;0.90;;;;;;;2.46;100.00;101398.50;2093329;28;20622;-64
2023/11/27 02:05:51;;;;;;;0.70;0.70;;;;;;;2.48;100.00;101398.94;2096147;28;20200;-64
2023/11/27 02:06:52;;;;;;;1.97;1.00;;;;;;;2.04;100.00;101326.50;2089048;28;20182;-63
2023/11/27 02:07:53;;;;;;;2.37;1.00;;;;;;;2.52;100.00;101401.75;2096113;28;20626;-63
2023/11/27 02:08:56;;;;;;;1.20;0.90;;;;;;;2.51;100.00;101402.91;2097161;28;20210;-64
2023/11/27 02:09:56;;;;;;;1.75;0.90;;;;;;;2.50;100.00;101401.31;2091233;28;20306;-64
2023/11/27 02:10:57;;;;;;;1.90;1.10;;;;;;;2.36;100.00;101392.81;2093052;28;20936;-63
2023/11/27 02:11:58;;;;;;;3.47;1.05;;;;;;;2.44;100.00;101411.75;2093630;28;20191;-64
2023/11/27 02:12:59;;;;;;;1.40;0.82;;;;;;;2.13;100.00;101359.91;2088925;28;20188;-64
2023/11/27 02:13:59;;;;;;;1.33;1.10;;;;;;;1.86;100.00;101322.56;2088811;28;20187;-63
2023/11/27 02:15:00;;;;;;;2.53;1.20;;;;;;;2.31;100.00;101402.06;2088895;28;20214;-64
2023/11/27 02:16:01;;;;;;;2.03;1.10;;;;;;;1.44;100.00;101249.81;2096396;28;20236;-63
2023/11/27 02:17:01;;;;;;;1.87;1.20;;;;;;;1.63;100.00;101291.63;2095031;28;20197;-63
2023/11/27 02:18:03;;;;;;;1.87;0.93;;;;;;;2.44;100.00;101405.47;2095989;28;20639;-64
2023/11/27 02:19:03;;;;;;;1.30;0.77;;;;;;;2.43;100.00;101404.69;2092937;28;20191;-63
2023/11/27 02:20:04;;;;;;;2.00;1.00;;;;;;;2.44;100.00;101405.47;2096868;28;20195;-64
2023/11/27 02:21:06;;;;;;;1.67;1.10;;;;;;;1.83;100.00;101317.84;2094743;28;20183;-64
2023/11/27 02:22:07;;;;;;;1.50;1.00;;;;;;;2.42;100.00;101411.31;2088406;28;20181;-64
2023/11/27 02:23:15;;;;;;;1.33;0.90;;;;;;;2.40;100.00;101410.88;2088970;28;20189;-63
2023/11/27 02:24:16;;;;;;;3.90;0.95;;;;;;;2.31;100.00;101423.97;2089072;28;20169;-63
2023/11/27 02:25:16;;;;;;;3.33;0.90;;;;;;;2.32;100.00;101420.06;2096544;28;20253;-63
2023/11/27 02:26:17;;;;;;;2.40;1.13;;;;;;;2.17;100.00;101412.69;2090685;28;20641;-63
2023/11/27 02:27:18;;;;;;;2.67;1.10;;;;;;;2.14;100.00;101421.63;2088744;28;20283;-64
2023/11/27 02:28:18;;;;;;;1.07;0.83;;;;;;;2.10;100.00;101418.00;2088048;28;20235;-63
2023/11/27 02:29:19;;;;;;;3.20;1.07;;;;;;;2.08;100.00;101420.31;2088704;28;20231;-63
2023/11/27 02:30:20;;;;;;;1.57;0.93;;;;;;;2.08;100.00;101427.72;2091142;28;20611;-63
2023/11/27 02:31:20;;;;;;;1.67;0.82;;;;;;;2.06;100.00;101419.88;2104840;28;20182;-63
2023/11/27 02:32:21;;;;;;;1.83;1.07;;;;;;;2.05;100.00;101420.25;2089002;28;20270;-63
2023/11/27 02:33:25;;;;;;;1.20;0.90;;;;;;;1.83;100.00;101383.41;2103039;28;20250;-63
2023/11/27 02:34:25;;;;;;;1.17;1.00;;;;;;;2.04;100.00;101419.44;2092889;28;20560;-63
2023/11/27 02:35:26;;;;;;;2.03;1.30;;;;;;;2.05;100.00;101417.50;2088868;28;20202;-64
2023/11/27 02:36:28;;;;;;;1.73;1.07;;;;;;;2.05;100.00;101410.09;2092047;28;20538;-63
2023/11/27 02:37:29;;;;;;;1.90;1.20;;;;;;;2.02;100.00;101419.03;2096520;28;20175;-63
2023/11/27 02:38:29;;;;;;;3.33;1.10;;;;;;;2.03;100.00;101420.59;2095611;28;20447;-64
2023/11/27 02:39:30;;;;;;;2.23;1.20;;;;;;;2.02;100.00;101423.69;2088466;28;20237;-64
2023/11/27 02:40:30;;;;;;;2.37;1.37;;;;;;;1.98;100.00;101420.88;2088724;28;20287;-64
2023/11/27 02:41:31;;;;;;;2.27;1.20;;;;;;;1.98;100.00;101418.13;2095665;28;20187;-63
2023/11/27 02:42:32;;;;;;;2.70;1.37;;;;;;;1.98;100.00;101420.06;2091206;28;20197;-64
2023/11/27 02:43:32;;;;;;;1.60;1.30;;;;;;;1.96;100.00;101420.41;2093523;28;20577;-64
2023/11/27 02:44:33;;;;;;;1.80;1.20;;;;;;;1.81;100.00;101399.38;2096293;28;20191;-63
2023/11/27 02:45:33;;;;;;;3.17;1.23;;;;;;;1.95;100.00;101429.00;2096354;28;20717;-64
2023/11/27 02:46:34;;;;;;;4.53;1.57;;;;;;;1.98;100.00;101425.53;2089642;28;20228;-63
2023/11/27 02:47:35;;;;;;;2.50;1.43;;;;;;;1.96;100.00;101422.38;2096680;28;20168;-63
2023/11/27 02:48:36;;;;;;;1.67;1.20;;;;;;;1.97;100.00;101418.50;2104999;28;20215;-63
2023/11/27 02:49:38;;;;;;;1.63;0.95;;;;;;;2.06;100.00;101425.34;2091806;28;20201;-63
2023/11/27 02:50:38;;;;;;;3.38;1.27;;;;;;;1.38;100.00;101317.56;2098939;28;20191;-63
2023/11/27 02:51:42;;;;;;;1.17;1.07;;;;;;;2.13;100.00;101428.25;2096696;28;20249;-63
2023/11/27 02:52:43;;;;;;;1.95;1.15;;;;;;;2.16;100.00;101422.06;2092316;28;20189;-64
2023/11/27 02:53:44;;;;;;;1.70;1.00;;;;;;;2.18;100.00;101425.25;2096984;28;20177;-64
2023/11/27 02:54:44;;;;;;;2.37;1.30;;;;;;;2.21;100.00;101427.25;2097900;28;20194;-63
2023/11/27 02:55:45;;;;;;;2.90;1.20;;;;;;;2.22;100.00;101423.34;2105634;28;20175;-64
2023/11/27 02:56:46;;;;;;;2.10;1.30;;;;;;;2.04;100.00;101389.38;2089241;28;20210;-64
2023/11/27 02:57:47;;;;;;;2.10;1.33;;;;;;;2.23;100.00;101424.16;2088246;28;20255;-63
2023/11/27 02:58:48;;;;;;;2.75;1.40;;;;;;;2.20;100.00;101405.72;2093629;28;20212;-63
2023/11/27 02:59:51;;;;;;;2.10;1.27;;;;;;;2.34;100.00;101420.53;2092462;28;20722;-63
2023/11/27 03:00:52;;;;;;;1.85;0.95;;;;;;;2.35;100.00;101429.50;2095276;28;20196;-63
2023/11/27 03:01:52;;;;;;;1.97;1.30;;;;;;;2.32;100.00;101417.34;2103166;28;20172;-64
2023/11/27 03:02:53;;;;;;;1.00;0.73;;;;;;;2.28;100.00;101421.16;2097891;28;20169;-63
2023/11/27 03:03:54;;;;;;;1.20;1.10;;;;;;;2.33;100.00;101424.41;2105420;28;20183;-64
2023/11/27 03:04:54;;;;;;;1.50;1.03;;;;;;;2.35;100.00;101419.38;2093340;28;20666;-63
2023/11/27 03:05:55;;;;;;;1.80;1.40;;;;;;;2.43;100.00;101415.66;2103064;28;20681;-63
2023/11/27 03:06:56;;;;;;;2.40;1.13;;;;;;;1.70;100.00;101299.19;2094340;28;20211;-63
2023/11/27 03:07:57;;;;;;;2.45;1.20;;;;;;;2.43;100.00;101415.66;2088091;28;20196;-63
2023/11/27 03:08:58;;;;;;;2.33;1.10;;;;;;;2.39;100.00;101416.69;2091547;28;20217;-63
2023/11/27 03:09:58;;;;;;;1.08;0.95;;;;;;;2.40;100.00;101421.81;2096838;28;20238;-63
2023/11/27 03:10:59;;;;;;;2.90;1.10;;;;;;;2.45;100.00;101421.53;2096291;28;20655;-63
2023/11/27 03:12:00;;;;;;;1.90;0.93;;;;;;;2.44;100.00;101410.94;2096419;28;20216;-63
2023/11/27 03:13:01;;;;;;;1.65;1.20;;;;;;;2.38;100.00;101393.25;2087718;28;20293;-63
2023/11/27 03:14:01;;;;;;;4.20;1.40;;;;;;;2.55;100.00;101418.25;2088469;28;20194;-63
2023/11/27 03:15:03;;;;;;;1.93;1.10;;;;;;;2.50;100.00;101415.78;2093874;28;20188;-64
2023/11/27 03:16:04;;;;;;;3.30;1.08;;;;;;;2.50;100.00;101418.53;2096685;28;20200;-63
2023/11/27 03:17:05;;;;;;;2.08;1.30;;;;;;;2.50;100.00;101412.25;2094258;28;23923;-63
2023/11/27 03:18:05;;;;;;;1.67;0.97;;;;;;;2.52;100.00;101418.16;2087961;28;20185;-63
2023/11/27 03:19:06;;;;;;;1.83;0.90;;;;;;;2.52;100.00;101418.94;2093845;28;20197;-63
2023/11/27 03:20:09;;;;;;;1.77;0.93;;;;;;;2.52;100.00;101418.94;2096914;28;20636;-63
2023/11/27 03:21:22;;;;;;;2.72;1.15;;;;;;;2.55;100.00;101412.75;2088740;28;20325;-63
2023/11/27 03:22:23;;;;;;;3.35;0.93;;;;;;;2.56;100.00;101414.34;2096680;28;20204;-63
2023/11/27 03:23:24;;;;;;;2.70;1.30;;;;;;;2.56;100.00;101403.41;2096212;28;20288;-63
2023/11/27 03:24:24;;;;;;;1.63;0.80;;;;;;;2.58;100.00;101412.03;2096167;28;20678;-63
2023/11/27 03:25:25;;;;;;;1.80;1.00;;;;;;;2.60;100.00;101403.47;2088656;28;20203;-64
2023/11/27 03:26:25;;;;;;;4.10;1.30;;;;;;;2.59;100.00;101402.69;2094583;28;20284;-63
2023/11/27 03:27:26;;;;;;;2.23;1.37;;;;;;;2.63;100.00;101400.78;2102096;28;20233;-63
2023/11/27 03:28:26;;;;;;;2.20;1.00;;;;;;;2.61;100.00;101397.63;2090100;28;20214;-63
2023/11/27 03:29:27;;;;;;;2.03;0.90;;;;;;;2.58;100.00;101398.34;2098617;28;20178;-64
2023/11/27 03:30:27;;;;;;;1.67;0.97;;;;;;;2.66;100.00;101402.03;2098230;28;20669;-63
2023/11/27 03:31:28;;;;;;;1.73;1.10;;;;;;;2.65;100.00;101393.03;2097885;28;20648;-63
2023/11/27 03:32:29;;;;;;;4.90;1.23;;;;;;;2.54;100.00;101383.81;2097742;28;20192;-63
2023/11/27 03:33:30;;;;;;;4.57;1.52;;;;;;;2.63;100.00;101395.31;2097610;28;20192;-64
2023/11/27 03:34:30;;;;;;;1.27;0.83;;;;;;;2.63;100.00;101392.59;2090030;28;20189;-63
2023/11/27 03:35:31;;;;;;;3.17;1.13;;;;;;;2.43;100.00;101360.94;2091284;28;20192;-64
2023/11/27 03:36:31;;;;;;;1.47;1.00;;;;;;;2.69;100.00;101395.84;2098467;28;20697;-64
2023/11/27 03:37:32;;;;;;;2.03;0.90;;;;;;;2.68;100.00;101403.25;2097887;28;20197;-64
2023/11/27 03:38:33;;;;;;;3.33;0.93;;;;;;;2.31;100.00;101341.91;2091235;28;20678;-63
2023/11/27 03:39:34;;;;;;;0.90;0.80;;;;;;;2.74;100.00;101398.28;2095549;28;20644;-63
2023/11/27 03:40:34;;;;;;;1.87;1.10;;;;;;;2.76;100.00;101404.97;2093490;28;20650;-64
2023/11/27 03:41:35;;;;;;;0.75;0.70;;;;;;;2.46;100.00;101357.47;2096109;28;20238;-63
2023/11/27 03:42:36;;;;;;;2.50;1.07;;;;;;;2.75;100.00;101405.34;2102659;28;20206;-63
2023/11/27 03:43:36;;;;;;;1.23;0.90;;;;;;;2.73;100.00;101402.19;2091368;28;20179;-64
2023/11/27 03:44:37;;;;;;;1.03;0.73;;;;;;;2.74;100.00;101403.75;2106848;28;20191;-63
2023/11/27 03:45:37;;;;;;;2.87;1.20;;;;;;;2.74;100.00;101396.34;2091181;28;20199;-63
2023/11/27 03:46:38;;;;;;;1.67;1.13;;;;;;;2.85;100.00;101402.03;2090026;28;20248;-63
2023/11/27 03:47:38;;;;;;;1.20;0.93;;;;;;;2.89;100.00;101403.69;2089369;28;20278;-64
2023/11/27 03:48:39;;;;;;;1.70;1.10;;;;;;;2.45;100.00;101331.25;2089880;28;20256;-63
2023/11/27 03:49:39;;;;;;;2.00;1.20;;;;;;;2.89;100.00;101405.63;2089966;28;20604;-64
2023/11/27 03:50:40;;;;;;;1.60;0.80;;;;;;;2.93;100.00;101401.78;2090559;28;20176;-64
2023/11/27 03:51:40;;;;;;;1.43;1.00;;;;;;;2.96;100.00;101403.00;2098278;28;20174;-64
2023/11/27 03:52:42;;;;;;;1.67;1.00;;;;;;;2.84;100.00;101389.50;2090150;28;20191;-64
2023/11/27 03:53:42;;;;;;;1.08;0.90;;;;;;;2.81;100.00;101357.34;2089876;28;20217;-64
2023/11/27 03:54:43;;;;;;;2.40;1.20;;;;;;;3.13;100.00;101406.09;2095615;28;20183;-63
2023/11/27 03:55:43;;;;;;;1.77;1.10;;;;;;;3.19;100.00;101403.84;2093342;28;20187;-63
2023/11/27 03:56:44;;;;;;;1.53;1.07;;;;;;;3.22;100.00;101403.13;2093109;28;20247;-63
2023/11/27 03:57:45;;;;;;;1.23;0.90;;;;;;;2.94;100.00;101365.06;2095679;28;20201;-64
2023/11/27 03:58:46;;;;;;;0.88;0.60;;;;;;;3.26;100.00;101401.25;2089672;28;20175;-64
2023/11/27 03:59:48;;;;;;;2.97;1.13;;;;;;;3.26;100.00;101402.03;2097596;28;20652;-64
2023/11/27 04:00:48;;;;;;;2.45;1.00;;;;;;;3.22;100.00;101400.38;2089516;28;20657;-63
2023/11/27 04:01:49;;;;;;;1.63;1.10;;;;;;;2.60;100.00;101326.84;2096410;28;20545;-63
2023/11/27 04:02:50;;;;;;;0.88;0.70;;;;;;;3.13;100.00;101399.84;2092806;28;20626;-63
2023/11/27 04:03:51;;;;;;;2.77;0.80;;;;;;;3.18;100.00;101405.78;2089693;28;20198;-63
2023/11/27 04:04:51;;;;;;;1.27;0.80;;;;;;;3.25;100.00;101408.69;2091466;28;20197;-63
2023/11/27 04:05:52;;;;;;;1.00;0.80;;;;;;;3.24;100.00;101407.06;2089783;28;20175;-63
2023/11/27 04:06:54;;;;;;;1.60;0.97;;;;;;;3.30;100.00;101399.34;2089823;28;20192;-63
2023/11/27 04:07:54;;;;;;;0.80;0.70;;;;;;;3.32;100.00;101405.25;2088692;28;20188;-64
2023/11/27 04:08:55;;;;;;;1.20;0.80;;;;;;;3.14;100.00;101406.91;2104249;28;20357;-64
2023/11/27 04:09:56;;;;;;;1.03;0.70;;;;;;;3.07;100.00;101382.91;2099301;28;20197;-64
2023/11/27 04:10:56;;;;;;;2.13;0.97;;;;;;;3.22;100.00;101412.13;2097685;28;20727;-63
2023/11/27 04:11:56;;;;;;;2.83;0.90;;;;;;;3.21;100.00;101416.03;2097944;28;20274;-64
2023/11/27 04:12:57;;;;;;;1.60;0.93;;;;;;;3.25;100.00;101421.56;2100276;28;20182;-63
2023/11/27 04:13:58;;;;;;;1.53;0.77;;;;;;;3.19;100.00;101414.81;2104327;28;20213;-63
2023/11/27 04:14:59;;;;;;;0.73;0.60;;;;;;;3.12;100.00;101420.94;2089912;28;20198;-63
2023/11/27 04:16:00;;;;;;;1.20;0.85;;;;;;;2.91;100.00;101406.03;2097958;28;20197;-63
2023/11/27 04:17:03;;;;;;;1.15;0.90;;;;;;;3.14;100.00;101420.59;2090913;28;20193;-64
2023/11/27 04:18:04;;;;;;;1.13;0.80;;;;;;;2.97;100.00;101407.38;2101484;28;20191;-64
2023/11/27 04:19:05;;;;;;;1.23;0.73;;;;;;;2.96;100.00;101428.47;2101246;28;20196;-64
2023/11/27 04:20:11;;;;;;;0.77;0.60;;;;;;;2.90;100.00;101424.44;2097819;28;20193;-63
2023/11/27 04:21:17;;;;;;;1.50;0.80;;;;;;;2.87;100.00;101422.41;2094359;28;20213;-64
2023/11/27 04:22:17;;;;;;;1.55;0.90;;;;;;;2.86;100.00;101420.81;2092154;28;20595;-63
2023/11/27 04:23:18;;;;;;;1.37;0.87;;;;;;;1.72;100.00;101247.69;2096769;28;20183;-63
2023/11/27 04:24:18;;;;;;;1.40;0.73;;;;;;;2.91;100.00;101427.94;2089504;28;20564;-64
2023/11/27 04:25:19;;;;;;;0.77;0.60;;;;;;;2.92;100.00;101429.56;2097708;28;20560;-63
2023/11/27 04:26:21;;;;;;;1.60;0.80;;;;;;;2.93;100.00;101428.41;2091038;28;20223;-64
2023/11/27 04:27:22;;;;;;;1.20;0.73;;;;;;;2.94;100.00;101430.78;2101434;28;20236;-63
2023/11/27 04:28:23;;;;;;;1.83;0.85;;;;;;;2.86;100.00;101420.81;2096068;28;20212;-63
2023/11/27 04:29:24;;;;;;;1.70;0.70;;;;;;;2.89;100.00;101433.00;2096646;28;20710;-63
2023/11/27 04:30:25;;;;;;;1.07;0.80;;;;;;;2.86;100.00;101437.25;2097257;28;20187;-63
2023/11/27 04:31:25;;;;;;;0.77;0.60;;;;;;;2.86;100.00;101439.19;2089071;28;20201;-64
2023/11/27 04:32:26;;;;;;;1.03;0.80;;;;;;;2.84;100.00;101428.63;2089776;28;20188;-63
2023/11/27 04:33:26;;;;;;;1.83;0.97;;;;;;;2.83;100.00;101429.75;2097694;28;20225;-64
2023/11/27 04:34:27;;;;;;;1.13;0.70;;;;;;;2.83;100.00;101426.25;2097811;28;20248;-63
2023/11/27 04:35:27;;;;;;;0.90;0.53;;;;;;;2.83;100.00;101424.28;2097871;28;20190;-63
2023/11/27 04:36:28;;;;;;;0.70;0.70;;;;;;;2.53;100.00;101375.97;2093635;28;20284;-63
2023/11/27 04:37:28;;;;;;;1.87;1.00;;;;;;;2.87;100.00;101435.31;2092022;28;20197;-63
2023/11/27 04:38:29;;;;;;;1.43;0.77;;;;;;;2.85;100.00;101427.47;2095437;28;20236;-64
2023/11/27 04:39:29;;;;;;;0.90;0.60;;;;;;;2.85;100.00;101413.78;2089657;28;20417;-63
2023/11/27 04:40:30;;;;;;;1.87;0.90;;;;;;;2.92;100.00;101430.34;2097967;28;20216;-63
2023/11/27 04:41:30;;;;;;;1.60;0.90;;;;;;;2.91;100.00;101433.41;2090239;28;20663;-63
2023/11/27 04:42:33;;;;;;;2.23;1.00;;;;;;;2.91;100.00;101427.94;2095561;28;20180;-63
2023/11/27 04:43:33;;;;;;;1.48;0.98;;;;;;;2.84;100.00;101434.09;2097736;28;20640;-63